Latest Weather Observations for Alva Beach

IDQ60801

Issued at 9:35 pm EST Tuesday 30 September 2014 (issued every 30 minutes, with the page automatically refreshed every 10 minutes)

About weather observations | Map of weather stations | Latest weather observations for QLD | Other Formats
Station Details ID: 033295 Name: ALVA BEACH Lat: -19.46 Lon: 147.48 Height: 7.5 m
Data from the previous 72 hours. | See also: Recent months at Alva Beach
Date/Time
EST
Temp
°C
App
Temp
°C
Dew
Point
Rel
Hum
%
Delta-T
°C
Wind Press
QNH
hPa
Press
MSL
hPa
Rain
since 9 am
mm
Dir
 
Spd
km/h
Gust
km/h
Spd
kts
Gust
kts
30/09:30pm 21.9 19.0 14.0 61 4.6 E 22 28 12 15 1018.7 1018.7 0.0
30/09:00pm 22.0 18.9 14.6 63 4.3 E 24 32 13 17 1018.6 1018.6 0.0
30/08:30pm 22.0 18.5 14.6 63 4.4 ENE 26 33 14 18 1018.3 1018.3 0.0
30/08:00pm 22.1 18.8 14.0 60 4.7 ENE 24 30 13 16 1018.0 1018.0 0.0
30/07:30pm 22.3 18.1 13.4 57 5.1 ENE 28 33 15 18 1017.7 1017.7 0.0
30/07:00pm 22.3 18.2 13.9 59 4.9 ENE 28 32 15 17 1017.5 1017.5 0.0
30/06:30pm 22.4 18.3 13.7 58 5.0 ENE 28 39 15 21 1017.1 1017.1 0.0
30/06:00pm 22.6 19.2 13.7 57 5.2 ENE 24 32 13 17 1016.8 1016.8 0.0
30/05:30pm 22.8 19.3 13.3 55 5.5 ENE 24 30 13 16 1016.6 1016.6 0.0
30/05:00pm 23.5 20.4 14.5 57 5.3 ENE 24 30 13 16 1016.3 1016.3 0.0
30/04:30pm 23.7 20.6 14.4 56 5.5 ENE 24 30 13 16 1016.0 1016.0 0.0
30/04:00pm 24.1 21.0 14.5 55 5.7 E 24 33 13 18 1016.1 1016.1 0.0
30/03:30pm 24.5 21.1 13.7 51 6.3 E 24 32 13 17 1016.0 1016.0 0.0
30/03:00pm 24.5 21.3 14.3 53 6.0 E 24 32 13 17 1016.0 1016.0 0.0
30/02:30pm 24.8 22.2 14.9 54 5.9 E 22 32 12 17 1016.1 1016.1 0.0
30/02:00pm 24.1 21.9 14.5 55 5.7 E 19 28 10 15 1016.6 1016.6 0.0
30/01:30pm 23.9 22.3 14.9 57 5.4 E 17 26 9 14 1017.1 1017.1 0.0
30/01:00pm 24.2 22.1 14.6 55 5.7 E 19 26 10 14 1017.5 1017.5 0.0
30/12:30pm 25.3 24.2 15.3 54 6.0 E 15 24 8 13 1018.0 1018.0 0.0
30/12:00pm 25.2 24.1 15.2 54 6.0 E 15 24 8 13 1018.5 1018.5 0.0
30/11:30am 25.8 24.2 14.9 51 6.5 ESE 17 26 9 14 1019.1 1019.1 0.0
30/11:00am 25.0 22.9 13.5 48 6.7 ESE 17 22 9 12 1019.6 1019.6 0.0
30/10:30am 25.0 23.9 14.2 51 6.4 ESE 13 24 7 13 1019.9 1019.9 0.0
30/10:00am 23.9 21.9 12.8 49 6.4 ESE 15 24 8 13 1020.2 1020.2 0.0
30/09:30am 24.3 23.0 13.8 52 6.2 SE 13 22 7 12 1020.2 1020.2 0.0
30/09:00am 23.5 22.0 14.2 56 5.5 SE 15 24 8 13 1020.2 1020.2 0.0
30/08:30am 23.0 21.8 14.0 57 5.3 SE 13 19 7 10 1020.1 1020.1 0.0
30/08:00am 22.1 21.6 13.7 59 4.9 S 9 15 5 8 1019.9 1019.9 0.0
30/07:30am 20.4 19.9 12.1 59 4.6 SE 6 7 3 4 1019.7 1019.7 0.0
30/07:00am 21.0 19.7 12.4 58 4.8 E 11 20 6 11 1019.3 1019.3 0.0
30/06:30am 21.2 19.4 12.1 56 5.1 E 13 20 7 11 1018.9 1018.9 0.0
30/06:00am 20.7 17.5 11.1 54 5.3 E 19 26 10 14 1018.6 1018.6 0.0
30/05:30am 20.8 17.7 11.7 56 5.1 E 19 26 10 14 1018.4 1018.4 0.0
30/05:00am 20.9 17.7 11.8 56 5.1 E 20 33 11 18 1018.0 1018.0 0.0
30/04:30am 20.8 17.1 11.4 55 5.2 E 22 33 12 18 1017.8 1017.8 0.0
30/04:00am 20.7 16.5 11.1 54 5.3 E 24 33 13 18 1017.5 1017.5 0.0
30/03:30am 20.9 16.8 11.5 55 5.2 E 24 33 13 18 1017.4 1017.4 0.0
30/03:00am 21.1 16.6 12.5 58 4.8 E 28 35 15 19 1017.3 1017.3 0.0
30/02:30am 21.4 17.0 12.8 58 4.9 E 28 39 15 21 1017.4 1017.4 0.0
30/02:00am 21.2 17.1 12.6 58 4.9 E 26 35 14 19 1017.6 1017.6 0.0
30/01:30am 21.0 17.0 11.9 56 5.1 E 24 35 13 19 1017.8 1017.8 0.0
30/01:00am 21.4 17.3 12.8 58 4.9 E 26 37 14 20 1017.8 1017.8 0.0
30/12:30am 21.6 18.3 14.0 62 4.4 E 24 33 13 18 1018.0 1018.0 0.0
30/12:00am 21.7 17.4 13.3 59 4.8 E 28 37 15 20 1018.4 1018.4 0.0
 
Date/Time
EST
Temp
°C
App
Temp
°C
Dew
Point
Rel
Hum
%
Delta-T
°C
Wind Press
QNH
hPa
Press
MSL
hPa
Rain
since 9 am
mm
Dir
 
Spd
km/h
Gust
km/h
Spd
kts
Gust
kts
29/11:30pm 21.8 17.9 14.4 63 4.3 E 28 41 15 22 1018.5 1018.5 0.0
29/11:00pm 22.0 18.3 14.9 64 4.2 E 28 37 15 20 1018.4 1018.4 0.0
29/10:30pm 21.9 18.0 14.3 62 4.4 E 28 39 15 21 1018.6 1018.6 0.0
29/10:00pm 22.0 18.3 14.9 64 4.2 E 28 41 15 22 1018.4 1018.4 0.0
29/09:30pm 22.1 18.4 15.0 64 4.2 E 28 37 15 20 1018.4 1018.4 0.0
29/09:00pm 22.3 18.9 15.9 67 3.8 E 28 35 15 19 1018.4 1018.4 0.0
29/08:30pm 22.2 18.2 15.1 64 4.2 E 30 39 16 21 1018.0 1018.0 0.0
29/08:00pm 22.4 17.8 14.5 61 4.6 E 32 43 17 23 1017.7 1017.7 0.0
29/07:30pm 22.4 18.2 15.7 66 4.0 E 32 43 17 23 1017.3 1017.3 0.0
29/07:00pm 22.5 18.8 14.9 62 4.5 E 28 37 15 20 1017.0 1017.0 0.0
29/06:30pm 22.5 19.1 15.8 66 4.0 E 28 39 15 21 1016.6 1016.6 0.0
29/06:00pm 22.8 19.6 16.4 67 3.9 E 28 37 15 20 1016.4 1016.4 0.0
29/05:30pm 22.9 19.2 16.0 65 4.2 E 30 37 16 20 1016.1 1016.1 0.0
29/05:00pm 23.4 19.7 16.0 63 4.5 ENE 30 39 16 21 1015.9 1015.9 0.0
29/04:30pm 23.7 20.6 16.5 64 4.4 E 28 37 15 20 1015.8 1015.8 0.0
29/04:00pm 24.0 20.9 15.5 59 5.1 E 26 35 14 19 1015.7 1015.7 0.0
29/03:30pm 24.2 20.9 14.9 56 5.5 E 26 39 14 21 1015.7 1015.7 0.0
29/03:00pm 25.0 22.1 15.0 53 6.0 E 24 33 13 18 1016.0 1016.0 0.0
29/02:30pm 24.8 22.0 14.3 52 6.2 E 22 32 12 17 1016.1 1016.1 0.0
29/02:00pm 25.1 23.2 15.7 56 5.7 E 20 30 11 16 1016.5 1016.5 0.0
29/01:30pm 24.7 22.9 15.9 58 5.3 E 20 28 11 15 1016.8 1016.8 0.0
29/01:00pm 25.1 22.8 15.7 56 5.7 E 22 30 12 16 1017.1 1017.1 0.0
29/12:30pm 24.7 21.7 14.8 54 5.9 E 24 32 13 17 1017.5 1017.5 0.0
29/12:00pm 25.1 23.3 15.4 55 5.8 E 19 30 10 16 1018.2 1018.2 0.0
29/11:30am 25.1 23.2 15.1 53 6.0 E 19 28 10 15 1018.6 1018.6 0.0
29/11:00am 24.8 23.5 15.7 57 5.5 E 17 26 9 14 1018.9 1018.9 0.0
29/10:30am 25.8 24.9 15.8 54 6.1 ESE 15 26 8 14 1019.2 1019.2 0.0
29/10:00am 25.3 24.5 16.2 57 5.6 ESE 15 28 8 15 1019.2 1019.2 0.0
29/09:30am 25.0 23.7 15.9 57 5.5 ESE 17 30 9 16 1019.2 1019.2 0.0
29/09:00am 24.6 23.4 16.1 59 5.2 ESE 17 26 9 14 1019.1 1019.1 0.0
29/08:30am 24.5 24.3 16.7 61 4.8 ESE 13 26 7 14 1019.1 1019.1 0.0
29/08:00am 22.3 22.6 16.1 68 3.7 SE 9 15 5 8 1019.1 1019.1 0.0
29/07:30am 23.4 21.5 14.1 56 5.5 ESE 17 28 9 15 1018.8 1018.8 0.0
29/07:00am 22.8 21.1 14.6 60 4.8 E 17 26 9 14 1018.5 1018.5 0.0
29/06:30am 21.3 19.9 14.5 65 4.0 E 15 22 8 12 1018.0 1018.0 0.0
29/06:00am 21.0 19.9 14.2 65 3.9 E 13 20 7 11 1017.7 1017.7 0.0
29/05:30am 21.4 19.9 15.3 68 3.6 E 17 22 9 12 1017.2 1017.2 0.0
29/05:00am 21.2 19.8 14.6 66 3.9 E 15 20 8 11 1016.9 1016.9 0.0
29/04:30am 21.8 19.8 15.6 68 3.7 E 20 28 11 15 1016.5 1016.5 0.0
29/04:00am 21.6 20.0 15.0 66 3.9 E 17 26 9 14 1016.3 1016.3 0.0
29/03:30am 21.7 19.8 15.3 67 3.8 E 19 28 10 15 1016.3 1016.3 0.0
29/03:00am 21.8 20.0 15.6 68 3.7 E 19 26 10 14 1016.3 1016.3 0.0
29/02:30am 21.8 20.0 15.6 68 3.7 E 19 26 10 14 1016.5 1016.5 0.0
29/02:00am 21.9 20.4 16.2 70 3.4 E 19 24 10 13 1016.9 1016.9 0.0
29/01:30am 22.0 20.5 16.3 70 3.4 E 19 24 10 13 1017.2 1017.2 0.0
29/01:00am 22.0 20.1 15.8 68 3.7 E 20 28 11 15 1017.5 1017.5 0.0
29/12:30am 22.1 20.7 16.6 71 3.3 E 19 26 10 14 1017.6 1017.6 0.0
29/12:00am 22.0 20.4 16.1 69 3.6 E 19 28 10 15 1017.7 1017.7 0.0
 
Date/Time
EST
Temp
°C
App
Temp
°C
Dew
Point
Rel
Hum
%
Delta-T
°C
Wind Press
QNH
hPa
Press
MSL
hPa
Rain
since 9 am
mm
Dir
 
Spd
km/h
Gust
km/h
Spd
kts
Gust
kts
28/11:30pm 22.1 20.3 16.1 69 3.6 E 20 28 11 15 1017.8 1017.8 0.0
28/11:00pm 22.2 20.6 16.5 70 3.5 E 20 28 11 15 1017.9 1017.9 0.0
28/10:30pm 22.3 20.4 16.6 70 3.5 ENE 22 28 12 15 1017.9 1017.9 0.0
28/10:00pm 22.3 20.8 16.8 71 3.4 E 20 28 11 15 1018.1 1018.1 0.0
28/09:30pm 22.4 21.1 16.7 70 3.5 E 19 28 10 15 1018.1 1018.1 0.0
28/09:00pm 22.4 19.8 16.0 67 3.9 E 24 30 13 16 1018.0 1018.0 0.0
28/08:30pm 22.4 20.9 16.7 70 3.5 E 20 24 11 13 1018.0 1018.0 0.0
28/08:00pm 22.4 20.8 16.4 69 3.6 ENE 20 26 11 14 1017.8 1017.8 0.0
28/07:30pm 22.5 20.9 16.5 69 3.7 ENE 20 28 11 15 1017.4 1017.4 0.0
28/07:00pm 22.6 20.7 16.6 69 3.7 ENE 22 32 12 17 1017.1 1017.1 0.0
28/06:30pm 22.8 19.7 16.6 68 3.8 ENE 28 32 15 17 1016.7 1016.7 0.0
28/06:00pm 22.9 20.0 16.2 66 4.1 ENE 26 33 14 18 1016.3 1016.3 0.0
28/05:30pm 23.3 20.5 16.4 65 4.2 ENE 26 32 14 17 1015.9 1015.9 0.0
28/05:00pm 24.1 21.7 16.4 62 4.7 ENE 24 30 13 16 1015.8 1015.8 0.0
28/04:30pm 24.3 21.5 16.3 61 4.9 ENE 26 32 14 17 1015.6 1015.6 0.0
28/04:00pm 24.5 21.4 15.7 58 5.3 ENE 26 32 14 17 1015.4 1015.4 0.0
28/03:30pm 25.2 23.1 17.1 60 5.0 ENE 24 30 13 16 1015.3 1015.3 0.0
28/03:00pm 25.6 23.3 16.7 58 5.5 ENE 24 28 13 15 1015.4 1015.4 0.0
28/02:30pm 25.0 23.3 16.2 58 5.4 ENE 20 26 11 14 1015.7 1015.7 0.0
28/02:00pm 25.1 24.1 16.5 59 5.3 E 17 24 9 13 1016.0 1016.0 0.0
28/01:30pm 24.9 23.8 16.3 59 5.3 E 17 22 9 12 1016.3 1016.3 0.0
28/01:00pm 25.2 24.3 16.9 60 5.1 E 17 24 9 13 1016.5 1016.5 0.0
28/12:30pm 25.1 24.0 16.3 58 5.4 E 17 24 9 13 1017.0 1017.0 0.0
28/12:00pm 25.2 24.1 16.3 57 5.4 E 17 22 9 12 1017.5 1017.5 0.0
28/11:30am 25.5 24.3 16.1 56 5.7 E 17 22 9 12 1017.8 1017.8 0.0
28/11:00am 24.8 23.8 16.5 60 5.1 E 17 22 9 12 1018.1 1018.1 0.0
28/10:30am 25.5 25.1 17.2 60 5.2 E 15 20 8 11 1018.5 1018.5 0.0
28/10:00am 25.1 24.3 17.0 60 5.0 E 17 20 9 11 1018.8 1018.8 0.0
28/09:30am 25.1 24.5 17.6 63 4.7 E 17 22 9 12 1018.9 1018.9 0.0
28/09:00am 24.6 23.7 16.8 62 4.8 E 17 22 9 12 1019.0 1019.0 0.0
28/08:30am 24.4 24.4 17.1 63 4.5 E 13 19 7 10 1019.0 1019.0 0.0
28/08:00am 24.1 24.4 17.1 65 4.3 E 11 17 6 9 1018.8 1018.8 0.0
28/07:30am 24.0 24.6 17.7 68 3.9 E 11 15 6 8 1018.5 1018.5 0.0
28/07:00am 23.2 23.5 17.0 68 3.8 ENE 11 17 6 9 1018.1 1018.1 0.0
28/06:30am 22.2 22.2 17.1 73 3.1 ENE 13 19 7 10 1017.6 1017.6 0.0
28/06:00am 21.8 21.9 17.4 76 2.7 E 13 19 7 10 1017.1 1017.1 0.0
28/05:30am 21.8 21.9 17.4 76 2.7 E 13 17 7 9 1016.8 1016.8 0.0
28/05:00am 21.9 22.0 17.5 76 2.7 E 13 17 7 9 1016.6 1016.6 0.0
28/04:30am 22.0 22.3 17.8 77 2.6 E 13 17 7 9 1016.4 1016.4 0.0
28/04:00am 22.1 22.0 17.9 77 2.6 E 15 19 8 10 1016.2 1016.2 0.0
28/03:30am 22.0 21.8 17.6 76 2.7 E 15 20 8 11 1016.0 1016.0 0.0
28/03:00am 22.0 22.3 18.0 78 2.5 E 13 17 7 9 1016.0 1016.0 0.0
28/02:30am 22.1 22.3 18.5 80 2.3 ENE 15 20 8 11 1016.1 1016.1 0.0
28/02:00am 22.0 22.0 18.0 78 2.5 ENE 15 17 8 9 1016.1 1016.1 0.0
28/01:30am 22.4 22.2 18.4 78 2.5 ENE 17 20 9 11 1016.4 1016.4 0.0
28/01:00am 22.2 21.4 18.0 77 2.6 ENE 19 22 10 12 1016.5 1016.5 0.0
28/12:30am 22.6 22.0 18.8 79 2.4 ENE 20 24 11 13 1016.8 1016.8 0.0
28/12:00am 22.7 21.9 18.5 77 2.6 ENE 20 24 11 13 1017.1 1017.1 0.0
 
Date/Time
EST
Temp
°C
App
Temp
°C
Dew
Point
Rel
Hum
%
Delta-T
°C
Wind Press
QNH
hPa
Press
MSL
hPa
Rain
since 9 am
mm
Dir
 
Spd
km/h
Gust
km/h
Spd
kts
Gust
kts
27/11:30pm 22.7 21.3 18.0 75 2.9 ENE 22 28 12 15 1017.3 1017.3 0.0
27/11:00pm 22.7 22.0 18.3 76 2.8 ENE 19 24 10 13 1017.5 1017.5 0.0
27/10:30pm 22.8 22.1 18.3 76 2.8 ENE 19 24 10 13 1017.4 1017.4 0.0
27/10:00pm 23.0 21.9 18.7 77 2.7 ENE 22 28 12 15 1017.2 1017.2 0.0

Other Formats:

Comma delimited format used in spreadsheet applications
http://www.bom.gov.au/fwo/IDQ60801/IDQ60801.95296.axf

JavaScript Object Notation format (JSON) in row-major order
http://www.bom.gov.au/fwo/IDQ60801/IDQ60801.95296.json